Aline, Oklahoma
Current Conditions -  °F | °C
As of 3:50 AM on Sunday 25 Jan 2015 (Local Time) from KAVK Reporting Station
Clear Clear  
Wind Chill: 50°   Ceiling: Unl
Heat Index: 50°   Visibility: 10mi
Dew Point: 28°   Wind: 23mph
Humidity: 43%   Direction: 330°NNW
Pressure: 29.94"   Gusts: 33mph
Location:  36.51°N, 98.45°W
Report Text: KAVK 250950Z AUTO 33020G29KT 10SM CLR 10/M02 A2994 RMK AO2
Loading
Personal Weather Stations






























Interactive Weather Map New forecast layout! Learn more

10-Day Weather Forecast

Advertisements
Track Severe Weather on mobile